createdAt,value
2017-06-30T00:01:04.153Z,87.00
2017-06-30T00:03:32.536Z,86.90
2017-06-30T00:06:00.959Z,87.10
2017-06-30T00:08:29.337Z,87.10
2017-06-30T00:10:57.842Z,87.00
2017-06-30T00:13:26.252Z,87.00
2017-06-30T00:15:54.624Z,86.80
2017-06-30T00:18:23.013Z,86.70
2017-06-30T00:20:51.414Z,86.60
2017-06-30T00:23:20.573Z,86.70
2017-06-30T00:25:48.964Z,86.60
2017-06-30T00:28:17.367Z,86.30
2017-06-30T00:30:46.577Z,85.90
2017-06-30T00:33:14.968Z,85.90
2017-06-30T00:35:43.643Z,85.30
2017-06-30T00:38:12.290Z,85.50
2017-06-30T00:40:40.683Z,84.90
2017-06-30T00:43:09.874Z,84.30
2017-06-30T00:45:38.269Z,84.20
2017-06-30T00:48:07.426Z,84.40
2017-06-30T00:50:35.843Z,84.40
2017-06-30T00:53:04.255Z,84.20
2017-06-30T00:55:32.634Z,84.00
2017-06-30T00:58:01.052Z,84.10
2017-06-30T01:00:29.456Z,84.20
2017-06-30T01:02:58.612Z,84.50
2017-06-30T01:05:27.070Z,84.30
2017-06-30T01:07:55.456Z,84.50
2017-06-30T01:10:23.829Z,84.60
2017-06-30T01:12:52.230Z,84.90
2017-06-30T01:15:20.632Z,85.00
2017-06-30T01:17:49.041Z,85.10
2017-06-30T01:20:17.458Z,84.90
2017-06-30T01:22:45.841Z,85.50
2017-06-30T01:25:14.236Z,85.70
2017-06-30T01:27:42.643Z,85.80
2017-06-30T01:30:11.046Z,86.00
2017-06-30T01:32:39.438Z,86.30
2017-06-30T01:35:07.843Z,86.60
2017-06-30T01:37:36.233Z,86.70
2017-06-30T01:40:04.607Z,87.10
2017-06-30T01:42:33.010Z,87.40
2017-06-30T01:45:02.146Z,88.30
2017-06-30T01:47:30.543Z,88.20
2017-06-30T01:49:58.959Z,88.60
2017-06-30T01:52:28.117Z,89.30
2017-06-30T01:54:56.533Z,89.30
2017-06-30T01:57:25.011Z,89.90
2017-06-30T01:59:54.221Z,90.10
2017-06-30T02:02:22.617Z,90.00
2017-06-30T02:04:51.031Z,90.30
2017-06-30T02:07:19.421Z,90.40
2017-06-30T02:09:47.825Z,90.70
2017-06-30T02:12:17.000Z,91.10
2017-06-30T02:14:45.374Z,91.00
2017-06-30T02:17:13.764Z,91.20
2017-06-30T02:19:42.185Z,91.40
2017-06-30T02:22:10.572Z,91.60
2017-06-30T02:24:38.956Z,91.70
2017-06-30T02:27:07.366Z,91.80
2017-06-30T02:29:35.786Z,92.00
2017-06-30T02:32:04.932Z,92.20
2017-06-30T02:34:33.329Z,92.20
2017-06-30T02:37:01.707Z,92.30
2017-06-30T02:39:30.093Z,92.30
2017-06-30T02:41:59.277Z,92.60
2017-06-30T02:44:27.678Z,92.60
2017-06-30T02:46:56.817Z,92.80
2017-06-30T02:49:25.221Z,92.80
2017-06-30T02:51:53.610Z,92.90
2017-06-30T02:54:21.990Z,93.00
2017-06-30T02:56:50.389Z,93.00
2017-06-30T02:59:19.533Z,93.10
2017-06-30T03:01:47.939Z,93.10
2017-06-30T03:04:16.357Z,93.20
2017-06-30T03:06:44.747Z,93.20
2017-06-30T03:09:13.229Z,93.20
2017-06-30T03:11:41.654Z,93.30
2017-06-30T03:14:10.080Z,93.30
2017-06-30T03:16:38.468Z,93.30
2017-06-30T03:19:06.875Z,93.40
2017-06-30T03:21:35.266Z,93.40
2017-06-30T03:24:03.655Z,93.40
2017-06-30T03:26:32.846Z,93.50
2017-06-30T03:29:02.005Z,93.50
2017-06-30T03:31:30.390Z,93.50
2017-06-30T03:33:58.809Z,93.50
2017-06-30T03:36:27.967Z,93.40
2017-06-30T03:38:56.340Z,93.40
2017-06-30T03:41:24.755Z,93.40
2017-06-30T03:43:53.136Z,93.30
2017-06-30T03:46:21.517Z,93.30
2017-06-30T03:48:49.967Z,93.30
2017-06-30T03:51:18.357Z,93.20
2017-06-30T03:53:47.526Z,93.20
2017-06-30T03:56:15.945Z,93.20
2017-06-30T03:58:45.105Z,93.20
2017-06-30T04:01:13.489Z,93.10
2017-06-30T04:03:41.912Z,93.10
2017-06-30T04:06:11.145Z,93.20
2017-06-30T04:08:39.533Z,93.20
2017-06-30T04:11:07.940Z,93.20
2017-06-30T04:13:36.336Z,93.30
2017-06-30T04:16:05.574Z,93.30
2017-06-30T04:18:34.019Z,93.20
2017-06-30T04:21:02.429Z,93.30
2017-06-30T04:23:30.809Z,93.40
2017-06-30T04:25:59.220Z,93.50
2017-06-30T04:28:27.614Z,93.50
2017-06-30T04:30:56.016Z,93.50
2017-06-30T04:33:25.196Z,93.60
2017-06-30T04:35:53.585Z,93.50
2017-06-30T04:38:22.755Z,93.50
2017-06-30T04:40:51.221Z,93.50
2017-06-30T04:43:19.613Z,93.50
2017-06-30T04:45:48.013Z,93.70
2017-06-30T04:48:17.182Z,93.50
2017-06-30T04:50:45.556Z,93.50
2017-06-30T04:53:13.951Z,93.50
2017-06-30T04:55:42.370Z,93.50
2017-06-30T04:58:10.746Z,93.50
2017-06-30T05:00:39.144Z,93.40
2017-06-30T05:03:07.578Z,93.40
2017-06-30T05:05:36.733Z,93.30
2017-06-30T05:08:05.112Z,93.30
2017-06-30T05:10:33.527Z,93.30
2017-06-30T05:13:02.681Z,93.20
2017-06-30T05:15:31.154Z,93.20
2017-06-30T05:17:59.557Z,93.00
2017-06-30T05:20:28.046Z,92.90
2017-06-30T05:22:56.424Z,92.80
2017-06-30T05:25:24.829Z,92.60
2017-06-30T05:27:53.977Z,92.50
2017-06-30T05:30:22.352Z,92.40
2017-06-30T05:32:50.762Z,92.30
2017-06-30T05:35:19.161Z,92.30
2017-06-30T05:37:47.558Z,92.30
2017-06-30T05:40:16.059Z,92.10
2017-06-30T05:42:44.508Z,91.70
2017-06-30T05:45:12.917Z,90.80
2017-06-30T05:47:41.316Z,90.60
2017-06-30T05:50:09.767Z,90.10
2017-06-30T05:52:38.224Z,89.10
2017-06-30T05:55:07.450Z,87.60
2017-06-30T05:57:35.825Z,87.60
2017-06-30T06:00:04.213Z,86.70
2017-06-30T06:02:32.616Z,85.70
2017-06-30T06:05:00.993Z,84.50
2017-06-30T06:07:29.381Z,83.70
2017-06-30T06:09:57.787Z,83.60
2017-06-30T06:12:26.954Z,83.40
2017-06-30T06:14:55.329Z,83.30
2017-06-30T06:17:23.719Z,82.20
2017-06-30T06:19:52.091Z,82.40
2017-06-30T06:22:20.475Z,81.50
2017-06-30T06:24:48.934Z,81.50
2017-06-30T06:27:17.319Z,80.10
2017-06-30T06:29:45.698Z,78.20
2017-06-30T06:32:14.123Z,77.90
2017-06-30T06:34:42.577Z,77.70
2017-06-30T06:37:11.732Z,78.00
2017-06-30T06:39:40.134Z,78.00
2017-06-30T06:42:08.174Z,76.80
2017-06-30T06:44:36.556Z,77.50
2017-06-30T06:47:04.958Z,77.30
2017-06-30T06:49:33.357Z,77.90
2017-06-30T06:52:02.516Z,76.00
2017-06-30T06:54:30.924Z,76.00
2017-06-30T06:56:59.313Z,75.00
2017-06-30T06:59:28.482Z,74.70
2017-06-30T07:01:56.902Z,74.60
2017-06-30T07:04:25.316Z,75.20
2017-06-30T07:06:53.707Z,73.10
2017-06-30T07:09:22.120Z,72.30
2017-06-30T07:11:51.290Z,72.90
2017-06-30T07:14:19.685Z,72.10
2017-06-30T07:16:48.097Z,73.80
2017-06-30T07:19:16.508Z,73.00
2017-06-30T07:21:44.912Z,73.10
2017-06-30T07:24:13.317Z,72.60
2017-06-30T07:26:42.486Z,72.50
2017-06-30T07:29:10.884Z,72.40
2017-06-30T07:31:40.060Z,70.30
2017-06-30T07:34:08.458Z,70.30
2017-06-30T07:36:37.635Z,71.40
2017-06-30T07:39:06.055Z,71.30
2017-06-30T07:41:34.455Z,70.50
2017-06-30T07:44:02.844Z,70.20
2017-06-30T07:46:31.064Z,68.90
2017-06-30T07:49:00.242Z,70.00
2017-06-30T07:51:28.627Z,69.30
2017-06-30T07:53:57.031Z,66.90
2017-06-30T07:56:25.439Z,65.40
2017-06-30T07:58:53.834Z,65.40
2017-06-30T08:01:22.253Z,65.80
2017-06-30T08:03:51.428Z,66.60
2017-06-30T08:06:19.826Z,66.60
2017-06-30T08:08:49.019Z,65.60
2017-06-30T08:11:17.391Z,65.00
2017-06-30T08:13:45.782Z,66.20
2017-06-30T08:16:15.108Z,68.00
2017-06-30T08:18:43.505Z,67.90
2017-06-30T08:21:11.893Z,65.60
2017-06-30T08:23:40.308Z,65.60
2017-06-30T08:26:09.505Z,66.00
2017-06-30T08:28:38.667Z,66.40
2017-06-30T08:31:07.083Z,65.30
2017-06-30T08:33:35.505Z,64.60
2017-06-30T08:36:03.907Z,66.00
2017-06-30T08:38:32.310Z,66.30
2017-06-30T08:41:00.698Z,65.90
2017-06-30T08:43:29.102Z,66.90
2017-06-30T08:45:57.522Z,68.70
2017-06-30T08:48:25.899Z,70.00
2017-06-30T08:50:54.315Z,71.30
2017-06-30T08:53:22.750Z,71.90
2017-06-30T08:55:51.153Z,72.30
2017-06-30T08:58:19.616Z,71.90
2017-06-30T09:00:48.025Z,72.70
2017-06-30T09:03:16.444Z,70.70
2017-06-30T09:05:44.840Z,71.30
2017-06-30T09:08:13.273Z,70.50
2017-06-30T09:10:42.442Z,67.50
2017-06-30T09:13:10.871Z,67.50
2017-06-30T09:15:39.287Z,68.20
2017-06-30T09:18:07.669Z,68.50
2017-06-30T09:20:38.715Z,69.50
2017-06-30T09:23:07.212Z,70.60
2017-06-30T09:25:36.381Z,70.50
2017-06-30T09:28:04.815Z,71.00
2017-06-30T09:30:33.189Z,71.10
2017-06-30T09:33:01.573Z,71.40
2017-06-30T09:35:30.002Z,70.70
2017-06-30T09:37:58.397Z,68.10
2017-06-30T09:40:26.868Z,66.50
2017-06-30T09:42:55.376Z,67.20
2017-06-30T09:45:24.561Z,68.80
2017-06-30T09:47:53.725Z,70.60
2017-06-30T09:50:22.146Z,69.80
2017-06-30T09:52:51.325Z,71.10
2017-06-30T09:55:19.719Z,70.50
2017-06-30T09:57:48.903Z,70.30
2017-06-30T10:00:17.307Z,70.30
2017-06-30T10:02:45.697Z,68.90
2017-06-30T10:05:14.101Z,65.90
2017-06-30T10:07:42.484Z,65.20
2017-06-30T10:10:10.901Z,66.40
2017-06-30T10:12:40.079Z,67.60
2017-06-30T10:15:08.469Z,67.00
2017-06-30T10:17:36.842Z,65.70
2017-06-30T10:20:05.262Z,65.40
2017-06-30T10:22:33.650Z,65.70
2017-06-30T10:25:02.056Z,64.50
2017-06-30T10:27:30.483Z,65.30
2017-06-30T10:29:58.871Z,65.80
2017-06-30T10:32:27.268Z,64.60
2017-06-30T10:34:55.687Z,63.90
2017-06-30T10:37:24.063Z,64.10
2017-06-30T10:39:52.465Z,64.20
2017-06-30T10:42:21.634Z,64.40
2017-06-30T10:44:50.017Z,64.40
2017-06-30T10:47:18.415Z,65.70
2017-06-30T10:49:46.817Z,63.40
2017-06-30T10:52:15.192Z,64.50
2017-06-30T10:54:43.580Z,61.20
2017-06-30T10:57:12.031Z,59.20
2017-06-30T10:59:41.185Z,60.00
2017-06-30T11:02:09.599Z,59.80
2017-06-30T11:04:38.008Z,61.10
2017-06-30T11:07:06.397Z,60.20
2017-06-30T11:09:34.771Z,60.90
2017-06-30T11:12:03.185Z,61.50
2017-06-30T11:14:31.584Z,60.60
2017-06-30T11:16:59.969Z,62.30
2017-06-30T11:19:28.413Z,61.60
2017-06-30T11:21:56.813Z,59.10
2017-06-30T11:24:25.194Z,58.10
2017-06-30T11:26:53.613Z,58.30
2017-06-30T11:29:21.991Z,58.20
2017-06-30T11:31:50.381Z,57.90
2017-06-30T11:34:18.795Z,57.20
2017-06-30T11:36:47.189Z,57.50
2017-06-30T11:39:15.580Z,58.70
2017-06-30T11:41:43.806Z,59.00
2017-06-30T11:44:12.208Z,58.10
2017-06-30T11:46:40.598Z,59.10
2017-06-30T11:49:08.998Z,60.10
2017-06-30T11:51:39.207Z,60.70
2017-06-30T11:54:07.687Z,58.10
2017-06-30T11:56:36.866Z,57.90
2017-06-30T11:59:05.277Z,57.90
2017-06-30T12:01:33.670Z,57.90
2017-06-30T12:04:02.095Z,57.50
2017-06-30T12:06:30.476Z,56.70
2017-06-30T12:08:58.888Z,57.10
2017-06-30T12:11:27.313Z,57.80
2017-06-30T12:13:55.704Z,57.60
2017-06-30T12:16:24.160Z,56.40
2017-06-30T12:18:52.589Z,54.40
2017-06-30T12:21:20.976Z,55.30
2017-06-30T12:23:49.380Z,54.20
2017-06-30T12:26:17.818Z,55.10
2017-06-30T12:28:46.214Z,54.00
2017-06-30T12:31:14.608Z,55.00
2017-06-30T12:33:43.030Z,54.50
2017-06-30T12:36:11.435Z,54.80
2017-06-30T12:38:39.835Z,54.80
2017-06-30T12:41:08.333Z,55.50
2017-06-30T12:43:36.745Z,54.00
2017-06-30T12:46:05.169Z,53.80
2017-06-30T12:48:34.448Z,52.50
2017-06-30T12:51:02.859Z,52.50
2017-06-30T12:53:31.253Z,52.80
2017-06-30T12:55:59.672Z,53.30
2017-06-30T12:58:28.056Z,52.80
2017-06-30T13:00:56.435Z,53.50
2017-06-30T13:03:24.841Z,53.10
2017-06-30T13:05:54.040Z,52.90
2017-06-30T13:08:23.208Z,53.20
2017-06-30T13:10:51.612Z,53.20
2017-06-30T13:13:20.768Z,52.30
2017-06-30T13:15:49.159Z,52.30
2017-06-30T13:18:17.773Z,53.10
2017-06-30T13:20:46.160Z,54.10
2017-06-30T13:23:14.658Z,55.20
2017-06-30T13:25:43.060Z,55.60
2017-06-30T13:28:11.448Z,53.70
2017-06-30T13:30:39.822Z,54.30
2017-06-30T13:33:08.260Z,54.50
2017-06-30T13:35:36.754Z,54.30
2017-06-30T13:38:05.158Z,54.20
2017-06-30T13:40:33.598Z,54.60
2017-06-30T13:43:01.994Z,56.50
2017-06-30T13:45:30.384Z,56.60
2017-06-30T13:47:58.789Z,57.20
2017-06-30T13:50:27.178Z,58.30
2017-06-30T13:52:56.347Z,58.50
2017-06-30T13:55:24.826Z,58.50
2017-06-30T13:57:53.210Z,58.20
2017-06-30T14:00:21.617Z,57.20
2017-06-30T14:02:50.029Z,57.00
2017-06-30T14:05:18.431Z,57.70
2017-06-30T14:07:46.852Z,57.20
2017-06-30T14:10:16.042Z,59.70
2017-06-30T14:12:44.453Z,59.60
2017-06-30T14:15:12.857Z,59.50
2017-06-30T14:17:41.286Z,59.50
2017-06-30T14:20:09.689Z,61.10
2017-06-30T14:22:38.093Z,60.60
2017-06-30T14:25:06.549Z,62.70
2017-06-30T14:27:34.952Z,63.00
2017-06-30T14:30:03.342Z,63.60
2017-06-30T14:32:31.749Z,63.60
2017-06-30T14:35:00.144Z,61.30
2017-06-30T14:37:29.291Z,61.40
2017-06-30T14:39:57.725Z,61.40
2017-06-30T14:42:26.909Z,59.80
2017-06-30T14:44:55.312Z,59.70
2017-06-30T14:47:23.716Z,59.60
2017-06-30T14:49:52.130Z,59.70
2017-06-30T14:52:20.537Z,60.90
2017-06-30T14:54:49.709Z,60.60
2017-06-30T14:57:18.094Z,60.50
2017-06-30T14:59:46.482Z,61.40
2017-06-30T15:02:15.672Z,60.90
2017-06-30T15:04:44.087Z,60.80
2017-06-30T15:07:12.480Z,60.80
2017-06-30T15:09:40.883Z,60.30
2017-06-30T15:12:09.290Z,60.00
2017-06-30T15:14:38.457Z,57.30
2017-06-30T15:17:06.861Z,57.20
2017-06-30T15:19:36.030Z,58.40
2017-06-30T15:22:04.423Z,58.20
2017-06-30T15:24:32.851Z,58.80
2017-06-30T15:27:01.245Z,59.80
2017-06-30T15:29:29.674Z,60.60
2017-06-30T15:31:58.865Z,62.70
2017-06-30T15:34:27.252Z,62.60
2017-06-30T15:36:55.680Z,63.60
2017-06-30T15:39:24.107Z,69.40
2017-06-30T15:41:53.260Z,81.40
2017-06-30T15:44:21.649Z,81.30
2017-06-30T15:46:50.062Z,85.30
2017-06-30T15:49:19.217Z,90.80
2017-06-30T15:51:47.597Z,90.80
2017-06-30T15:54:16.001Z,90.50
2017-06-30T15:56:44.384Z,92.40
2017-06-30T15:59:12.779Z,92.00
2017-06-30T16:01:41.947Z,89.00
2017-06-30T16:04:10.337Z,88.90
2017-06-30T16:06:38.715Z,91.10
2017-06-30T16:09:07.116Z,90.00
2017-06-30T16:11:36.272Z,89.80
2017-06-30T16:14:04.660Z,89.80
2017-06-30T16:16:33.292Z,89.40
2017-06-30T16:19:01.687Z,90.10
2017-06-30T16:21:30.392Z,89.60
2017-06-30T16:23:58.811Z,89.10
2017-06-30T16:26:27.958Z,89.20
2017-06-30T16:28:56.344Z,89.20
2017-06-30T16:31:24.764Z,88.40
2017-06-30T16:33:53.921Z,87.60
2017-06-30T16:36:22.341Z,87.50
2017-06-30T16:38:51.537Z,87.20
2017-06-30T16:41:20.694Z,86.80
2017-06-30T16:43:49.078Z,86.70
2017-06-30T16:46:17.499Z,86.10
2017-06-30T16:48:45.898Z,86.70
2017-06-30T16:51:14.279Z,85.70
2017-06-30T16:53:42.699Z,87.10
2017-06-30T16:56:11.882Z,85.70
2017-06-30T16:58:40.270Z,85.60
2017-06-30T17:01:08.687Z,86.60
2017-06-30T17:03:37.077Z,84.30
2017-06-30T17:06:05.467Z,82.60
2017-06-30T17:08:33.871Z,81.40
2017-06-30T17:11:02.244Z,80.40
2017-06-30T17:13:30.649Z,81.20
2017-06-30T17:15:59.068Z,82.30
2017-06-30T17:18:27.457Z,81.60
2017-06-30T17:20:55.860Z,82.00
2017-06-30T17:23:24.492Z,81.90
2017-06-30T17:25:53.638Z,79.40
2017-06-30T17:28:22.033Z,79.40
2017-06-30T17:30:50.452Z,77.40
2017-06-30T17:33:18.828Z,76.90
2017-06-30T17:35:47.205Z,78.40
2017-06-30T17:38:15.619Z,79.60
2017-06-30T17:40:44.009Z,80.70
2017-06-30T17:43:12.400Z,81.00
2017-06-30T17:45:40.848Z,81.50
2017-06-30T17:48:09.237Z,81.60
2017-06-30T17:50:37.640Z,82.70
2017-06-30T17:53:06.046Z,83.10
2017-06-30T17:55:35.214Z,84.80
2017-06-30T17:58:03.603Z,84.80
2017-06-30T18:00:32.009Z,85.20
2017-06-30T18:03:00.394Z,86.00
2017-06-30T18:05:28.816Z,85.90
2017-06-30T18:07:57.236Z,86.90
2017-06-30T18:10:26.389Z,86.60
2017-06-30T18:12:54.793Z,86.60
2017-06-30T18:15:23.197Z,87.10
2017-06-30T18:17:51.599Z,86.90
2017-06-30T18:20:20.003Z,85.60
2017-06-30T18:22:48.493Z,84.90
2017-06-30T18:25:16.935Z,85.40
2017-06-30T18:27:45.321Z,85.20
2017-06-30T18:30:13.725Z,85.70
2017-06-30T18:32:42.117Z,85.60
2017-06-30T18:35:10.498Z,85.00
2017-06-30T18:37:39.477Z,85.10
2017-06-30T18:40:07.866Z,85.10
2017-06-30T18:42:36.296Z,84.90
2017-06-30T18:45:04.714Z,84.90
2017-06-30T18:47:33.108Z,84.20
2017-06-30T18:50:01.497Z,84.10
2017-06-30T18:52:29.902Z,84.10
2017-06-30T18:54:59.071Z,84.00
2017-06-30T18:57:27.444Z,84.00
2017-06-30T18:59:55.858Z,83.80
2017-06-30T19:02:24.252Z,83.50
2017-06-30T19:04:52.747Z,83.50
2017-06-30T19:07:21.160Z,84.20
2017-06-30T19:09:49.539Z,84.20
2017-06-30T19:12:17.929Z,84.20
2017-06-30T19:14:46.343Z,84.40
2017-06-30T19:17:14.737Z,84.50
2017-06-30T19:19:43.126Z,84.70
2017-06-30T19:22:13.198Z,84.60
2017-06-30T19:24:42.349Z,84.80
2017-06-30T19:27:10.721Z,84.60
2017-06-30T19:29:39.122Z,84.70
2017-06-30T19:32:07.501Z,85.00
2017-06-30T19:34:35.892Z,85.20
2017-06-30T19:37:04.304Z,85.50
2017-06-30T19:39:32.711Z,85.60
2017-06-30T19:42:01.099Z,85.60
2017-06-30T19:44:29.788Z,85.90
2017-06-30T19:46:58.226Z,86.10
2017-06-30T19:49:26.722Z,86.30
2017-06-30T19:51:55.172Z,86.70
2017-06-30T19:54:24.328Z,87.20
2017-06-30T19:56:52.709Z,87.20
2017-06-30T19:59:21.120Z,87.40
2017-06-30T20:01:50.362Z,88.00
2017-06-30T20:04:18.770Z,88.00
2017-06-30T20:06:47.190Z,88.20
2017-06-30T20:09:15.581Z,88.60
2017-06-30T20:11:43.968Z,89.20
2017-06-30T20:14:12.406Z,89.60
2017-06-30T20:16:40.807Z,90.00
2017-06-30T20:19:09.183Z,90.20
2017-06-30T20:21:37.603Z,90.30
2017-06-30T20:24:05.999Z,90.40
2017-06-30T20:26:34.424Z,90.60
2017-06-30T20:29:02.822Z,90.60
2017-06-30T20:31:31.265Z,90.70
2017-06-30T20:34:00.445Z,90.80
2017-06-30T20:36:29.628Z,91.20
2017-06-30T20:38:58.118Z,90.80
2017-06-30T20:41:26.538Z,90.80
2017-06-30T20:43:54.973Z,90.90
2017-06-30T20:46:24.143Z,91.00
2017-06-30T20:48:52.582Z,91.00
2017-06-30T20:51:21.010Z,91.00
2017-06-30T20:53:49.250Z,91.10
2017-06-30T20:56:17.661Z,91.20
2017-06-30T20:58:46.104Z,91.30
2017-06-30T21:01:14.493Z,91.50
2017-06-30T21:03:42.902Z,91.60
2017-06-30T21:06:12.128Z,91.60
2017-06-30T21:08:41.291Z,91.80
2017-06-30T21:11:09.690Z,91.70
2017-06-30T21:13:38.195Z,91.80
2017-06-30T21:16:09.619Z,91.90
2017-06-30T21:18:38.023Z,91.90
2017-06-30T21:21:07.194Z,92.00
2017-06-30T21:23:35.578Z,92.00
2017-06-30T21:26:04.409Z,92.10
2017-06-30T21:28:32.797Z,92.10
2017-06-30T21:31:01.233Z,92.20
2017-06-30T21:33:29.681Z,92.20
2017-06-30T21:35:58.147Z,92.20
2017-06-30T21:38:26.603Z,92.30
2017-06-30T21:40:55.209Z,92.30
2017-06-30T21:43:23.596Z,92.40
2017-06-30T21:45:52.027Z,92.30
2017-06-30T21:48:20.664Z,92.40
2017-06-30T21:50:49.187Z,92.50
2017-06-30T21:53:17.604Z,92.60
2017-06-30T21:55:46.042Z,92.60
2017-06-30T21:58:15.233Z,92.70
2017-06-30T22:00:43.758Z,92.60
2017-06-30T22:03:12.175Z,92.70
2017-06-30T22:05:40.565Z,92.80
2017-06-30T22:08:10.294Z,92.70
2017-06-30T22:10:38.737Z,92.60
2017-06-30T22:13:07.147Z,92.60
2017-06-30T22:15:35.560Z,92.70
2017-06-30T22:18:03.978Z,92.80
2017-06-30T22:20:32.385Z,92.90
2017-06-30T22:23:01.535Z,92.90
2017-06-30T22:25:29.965Z,92.90
2017-06-30T22:27:58.375Z,92.90
2017-06-30T22:30:26.797Z,92.90
2017-06-30T22:32:55.996Z,93.00
2017-06-30T22:35:25.195Z,93.10
2017-06-30T22:37:54.366Z,92.90
2017-06-30T22:40:22.777Z,92.90
2017-06-30T22:42:51.945Z,93.30
2017-06-30T22:45:20.360Z,93.20
2017-06-30T22:47:48.979Z,93.20
2017-06-30T22:50:17.391Z,93.20
2017-06-30T22:52:45.795Z,93.20
2017-06-30T22:55:14.957Z,93.30
2017-06-30T22:57:43.353Z,93.30
2017-06-30T23:00:11.736Z,93.10
2017-06-30T23:02:40.912Z,93.10
2017-06-30T23:05:09.301Z,93.10
2017-06-30T23:07:37.690Z,93.30
2017-06-30T23:10:06.860Z,93.40
2017-06-30T23:12:35.265Z,93.30
2017-06-30T23:15:04.420Z,93.30
2017-06-30T23:17:32.823Z,93.30
2017-06-30T23:20:01.250Z,93.20
2017-06-30T23:22:29.649Z,93.20
2017-06-30T23:24:58.170Z,93.20
2017-06-30T23:27:25.900Z,93.30
2017-06-30T23:29:53.943Z,93.30
2017-06-30T23:32:21.722Z,93.40
2017-06-30T23:34:49.769Z,93.50
2017-06-30T23:37:18.181Z,93.40
2017-06-30T23:39:46.259Z,93.50
2017-06-30T23:42:14.319Z,93.50
2017-06-30T23:44:44.208Z,93.60
2017-06-30T23:47:12.836Z,93.70
2017-06-30T23:49:46.320Z,93.70
2017-06-30T23:52:17.505Z,93.90
2017-06-30T23:54:46.260Z,94.80
2017-06-30T23:57:15.873Z,95.50
2017-06-30T23:59:45.187Z,96.50
